createdAt,value
2019-05-06T00:00:25.529Z,10.08
2019-05-06T00:02:54.510Z,10.33
2019-05-06T00:05:25.452Z,10.88
2019-05-06T00:07:54.429Z,9.15
2019-05-06T00:10:26.097Z,9.68
2019-05-06T00:12:55.873Z,10.07
2019-05-06T00:15:24.461Z,10.15
2019-05-06T00:17:53.921Z,9.33
2019-05-06T00:20:24.416Z,8.25
2019-05-06T00:22:54.801Z,8.30
2019-05-06T00:25:34.847Z,9.80
2019-05-06T00:28:21.205Z,7.60
2019-05-06T00:30:51.272Z,10.75
2019-05-06T00:33:19.886Z,7.78
2019-05-06T00:35:48.312Z,9.90
2019-05-06T00:38:16.931Z,9.70
2019-05-06T00:40:47.128Z,9.35
2019-05-06T00:43:15.568Z,9.75
2019-05-06T00:45:44.340Z,8.70
2019-05-06T00:48:13.998Z,8.35
2019-05-06T00:50:44.136Z,8.30
2019-05-06T00:53:14.256Z,7.78
2019-05-06T00:55:44.601Z,7.70
2019-05-06T00:58:14.210Z,8.60
2019-05-06T01:00:44.280Z,7.65
2019-05-06T01:05:44.283Z,7.80
2019-05-06T01:08:14.035Z,7.60
2019-05-06T01:10:44.598Z,7.58
2019-05-06T01:13:34.966Z,9.50
2019-05-06T01:16:04.270Z,8.65
2019-05-06T01:18:34.021Z,8.15
2019-05-06T01:21:11.689Z,9.20
2019-05-06T01:23:43.910Z,8.93
2019-05-06T01:26:15.005Z,9.00
2019-05-06T01:28:44.966Z,8.38
2019-05-06T01:31:14.103Z,9.08
2019-05-06T01:33:45.067Z,8.27
2019-05-06T01:36:14.165Z,8.78
2019-05-06T01:38:44.429Z,9.40
2019-05-06T01:41:17.345Z,9.45
2019-05-06T01:43:46.619Z,9.35
2019-05-06T01:46:15.042Z,9.05
2019-05-06T01:48:49.516Z,7.58
2019-05-06T01:51:20.325Z,9.25
2019-05-06T01:53:49.684Z,8.98
2019-05-06T01:56:18.628Z,8.38
2019-05-06T01:58:47.385Z,9.38
2019-05-06T02:01:16.339Z,9.43
2019-05-06T02:03:45.007Z,8.90
2019-05-06T02:06:14.236Z,9.28
2019-05-06T02:08:44.767Z,9.40
2019-05-06T02:11:14.876Z,9.18
2019-05-06T02:13:44.196Z,9.23
2019-05-06T02:16:14.548Z,8.55
2019-05-06T02:21:14.650Z,9.10
2019-05-06T02:26:15.397Z,8.38
2019-05-06T02:28:45.450Z,8.60
2019-05-06T02:31:35.148Z,8.70
2019-05-06T02:34:05.138Z,8.25
2019-05-06T02:36:45.570Z,8.03
2019-05-06T02:39:14.342Z,8.50
2019-05-06T02:41:43.132Z,9.38
2019-05-06T02:44:13.768Z,8.58
2019-05-06T02:46:44.136Z,8.88
2019-05-06T02:49:23.551Z,8.28
2019-05-06T02:51:53.285Z,8.23
2019-05-06T02:54:23.492Z,7.87
2019-05-06T02:56:53.234Z,8.68
2019-05-06T02:59:24.063Z,8.93
2019-05-06T03:01:53.870Z,7.97
2019-05-06T03:04:23.649Z,8.68
2019-05-06T03:06:53.324Z,10.50
2019-05-06T03:09:23.281Z,8.75
2019-05-06T03:11:53.962Z,9.60
2019-05-06T03:14:23.387Z,10.15
2019-05-06T03:16:53.809Z,8.55
2019-05-06T03:19:24.150Z,9.08
2019-05-06T03:21:56.833Z,10.18
2019-05-06T03:24:32.948Z,9.85
2019-05-06T03:26:59.730Z,10.23
2019-05-06T03:29:28.172Z,9.10
2019-05-06T03:31:57.570Z,9.93
2019-05-06T03:34:49.486Z,9.90
2019-05-06T03:36:57.255Z,9.78
2019-05-06T03:39:25.914Z,9.17
2019-05-06T03:41:54.556Z,9.30
2019-05-06T03:44:23.858Z,10.55
2019-05-06T03:47:06.263Z,8.53
2019-05-06T03:49:36.309Z,9.63
2019-05-06T03:52:05.211Z,9.75
2019-05-06T03:54:34.706Z,10.18
2019-05-06T03:57:04.549Z,8.90
2019-05-06T03:59:34.339Z,9.18
2019-05-06T04:02:05.322Z,8.98
2019-05-06T04:04:33.458Z,9.50
2019-05-06T04:07:03.436Z,8.70
2019-05-06T04:09:33.557Z,10.00
2019-05-06T04:12:03.499Z,9.68
2019-05-06T04:14:34.016Z,8.45
2019-05-06T04:17:06.709Z,13.40
2019-05-06T04:19:40.081Z,13.83
2019-05-06T04:22:12.770Z,13.03
2019-05-06T04:24:48.131Z,12.85
2019-05-06T04:27:24.203Z,12.60
2019-05-06T04:29:54.342Z,11.85
2019-05-06T04:34:53.580Z,12.05
2019-05-06T04:37:24.160Z,12.58
2019-05-06T04:39:53.549Z,12.25
2019-05-06T04:42:23.197Z,12.78
2019-05-06T04:47:24.097Z,11.60
2019-05-06T04:49:53.200Z,12.88
2019-05-06T04:52:22.889Z,12.78
2019-05-06T04:54:53.418Z,12.28
2019-05-06T04:57:23.746Z,12.05
2019-05-06T04:59:54.189Z,13.35
2019-05-06T05:02:23.330Z,12.33
2019-05-06T05:04:53.149Z,12.10
2019-05-06T05:07:22.572Z,12.45
2019-05-06T05:09:53.665Z,11.10
2019-05-06T05:12:35.781Z,11.35
2019-05-06T05:15:11.795Z,12.78
2019-05-06T05:17:42.119Z,13.05
2019-05-06T05:20:12.693Z,11.63
2019-05-06T05:25:12.217Z,13.35
2019-05-06T05:27:42.129Z,12.18
2019-05-06T05:30:12.482Z,11.85
2019-05-06T05:32:42.772Z,11.50
2019-05-06T05:35:12.777Z,11.83
2019-05-06T05:37:41.974Z,11.73
2019-05-06T05:40:12.792Z,11.40
2019-05-06T05:42:52.125Z,11.38
2019-05-06T05:45:22.143Z,10.53
2019-05-06T05:47:53.384Z,10.60
2019-05-06T05:50:23.724Z,10.53
2019-05-06T05:52:52.335Z,11.17
2019-05-06T05:55:21.962Z,9.55
2019-05-06T05:57:51.873Z,10.13
2019-05-06T06:00:22.436Z,9.45
2019-05-06T06:02:52.967Z,10.07
2019-05-06T06:05:21.913Z,10.40
2019-05-06T06:07:52.850Z,9.40
2019-05-06T06:12:52.964Z,9.80
2019-05-06T06:15:29.059Z,10.80
2019-05-06T06:18:16.037Z,9.23
2019-05-06T06:20:54.857Z,10.63
2019-05-06T06:23:32.415Z,10.00
2019-05-06T06:26:03.701Z,10.35
2019-05-06T06:28:33.159Z,9.55
2019-05-06T06:31:14.902Z,9.98
2019-05-06T06:33:43.736Z,9.83
2019-05-06T06:36:16.485Z,11.22
2019-05-06T06:38:46.626Z,9.40
2019-05-06T06:41:15.392Z,10.95
2019-05-06T06:43:45.740Z,10.83
2019-05-06T06:46:14.432Z,10.60
2019-05-06T06:48:43.400Z,9.43
2019-05-06T06:51:12.399Z,10.60
2019-05-06T06:53:42.115Z,9.77
2019-05-06T06:56:28.516Z,10.30
2019-05-06T06:59:02.966Z,10.15
2019-05-06T07:01:36.608Z,9.48
2019-05-06T07:04:10.537Z,9.03
2019-05-06T07:06:42.279Z,9.05
2019-05-06T07:09:12.548Z,9.38
2019-05-06T07:11:42.801Z,8.80
2019-05-06T07:14:13.587Z,9.78
2019-05-06T07:16:43.013Z,8.80
2019-05-06T07:19:13.190Z,8.18
2019-05-06T07:21:43.894Z,8.68
2019-05-06T07:24:13.103Z,9.25
2019-05-06T07:26:46.473Z,8.35
2019-05-06T07:29:23.060Z,8.45
2019-05-06T07:31:45.083Z,8.90
2019-05-06T07:34:13.534Z,7.97
2019-05-06T07:36:43.094Z,8.13
2019-05-06T07:39:15.226Z,8.10
2019-05-06T07:41:46.486Z,7.85
2019-05-06T07:44:19.251Z,7.25
2019-05-06T07:47:07.194Z,6.85
2019-05-06T07:49:35.815Z,7.05
2019-05-06T07:52:04.610Z,6.75
2019-05-06T07:54:33.486Z,7.03
2019-05-06T07:57:02.493Z,6.78
2019-05-06T07:59:33.374Z,6.50
2019-05-06T08:04:32.414Z,6.40
2019-05-06T08:07:03.101Z,6.67
2019-05-06T08:12:02.619Z,7.03
2019-05-06T08:14:43.309Z,7.60
2019-05-06T08:17:15.189Z,7.83
2019-05-06T08:19:43.619Z,7.45
2019-05-06T08:22:19.309Z,7.03
2019-05-06T08:24:47.729Z,7.53
2019-05-06T08:27:16.179Z,8.15
2019-05-06T08:29:44.614Z,7.30
2019-05-06T08:32:13.045Z,7.20
2019-05-06T08:34:42.213Z,7.00
2019-05-06T08:37:12.424Z,7.70
2019-05-06T08:39:43.883Z,7.62
2019-05-06T08:42:13.422Z,7.80
2019-05-06T08:44:42.744Z,7.55
2019-05-06T08:47:13.298Z,6.80
2019-05-06T08:49:58.545Z,7.10
2019-05-06T08:52:28.595Z,6.45
2019-05-06T08:55:06.973Z,6.67
2019-05-06T08:57:35.457Z,6.40
2019-05-06T09:00:04.821Z,6.70
2019-05-06T09:02:33.243Z,6.92
2019-05-06T09:05:02.985Z,6.60
2019-05-06T09:07:32.111Z,7.08
2019-05-06T09:10:02.567Z,6.37
2019-05-06T09:12:32.953Z,6.50
2019-05-06T09:15:03.547Z,6.28
2019-05-06T09:17:33.054Z,6.15
2019-05-06T09:22:32.594Z,6.87
2019-05-06T09:25:02.475Z,7.92
2019-05-06T09:27:47.658Z,9.20
2019-05-06T09:30:33.083Z,8.33
2019-05-06T09:33:02.633Z,8.40
2019-05-06T09:35:32.914Z,8.25
2019-05-06T09:40:31.891Z,7.60
2019-05-06T09:43:04.470Z,7.20
2019-05-06T09:45:32.880Z,6.72
2019-05-06T09:48:03.773Z,6.45
2019-05-06T09:50:46.240Z,6.30
2019-05-06T09:53:19.673Z,6.50
2019-05-06T09:56:04.995Z,6.20
2019-05-06T09:58:35.829Z,6.53
2019-05-06T10:01:04.951Z,6.42
2019-05-06T10:03:33.372Z,6.15
2019-05-06T10:06:02.750Z,6.30
2019-05-06T10:08:32.315Z,7.40
2019-05-06T10:11:03.159Z,6.30
2019-05-06T10:16:02.731Z,6.20
2019-05-06T10:18:30.904Z,5.50
2019-05-06T10:20:59.325Z,5.35
2019-05-06T10:23:27.758Z,5.22
2019-05-06T10:25:56.520Z,5.33
2019-05-06T10:28:26.605Z,5.10
2019-05-06T10:30:54.999Z,5.17
2019-05-06T10:33:25.332Z,5.45
2019-05-06T10:35:53.773Z,4.90
2019-05-06T10:38:31.436Z,5.22
2019-05-06T10:41:07.153Z,5.40
2019-05-06T10:43:47.714Z,5.33
2019-05-06T10:46:16.275Z,4.90
2019-05-06T10:48:44.791Z,5.50
2019-05-06T10:51:23.709Z,5.08
2019-05-06T10:53:52.202Z,5.20
2019-05-06T10:56:28.156Z,7.65
2019-05-06T10:58:58.278Z,8.18
2019-05-06T11:01:28.353Z,7.10
2019-05-06T11:03:56.786Z,6.83
2019-05-06T11:06:25.252Z,7.03
2019-05-06T11:08:53.650Z,6.47
2019-05-06T11:11:34.465Z,6.53
2019-05-06T11:13:52.339Z,6.20
2019-05-06T11:16:23.742Z,6.62
2019-05-06T11:18:53.336Z,7.25
2019-05-06T11:21:22.607Z,7.50
2019-05-06T11:23:52.633Z,7.33
2019-05-06T11:26:23.446Z,6.25
2019-05-06T11:29:05.439Z,6.33
2019-05-06T11:31:47.556Z,6.30
2019-05-06T11:34:17.623Z,5.80
2019-05-06T11:37:03.886Z,6.40
2019-05-06T11:39:32.327Z,6.08
2019-05-06T11:42:22.944Z,6.00
2019-05-06T11:44:32.352Z,5.70
2019-05-06T11:47:03.227Z,5.22
2019-05-06T11:49:32.610Z,5.92
2019-05-06T11:52:02.398Z,5.58
2019-05-06T11:54:33.593Z,5.35
2019-05-06T11:57:02.916Z,7.60
2019-05-06T11:59:31.749Z,7.00
2019-05-06T12:02:02.771Z,6.72
2019-05-06T12:04:32.906Z,7.03
2019-05-06T12:07:10.218Z,6.95
2019-05-06T12:09:33.080Z,7.08
2019-05-06T12:14:31.362Z,6.33
2019-05-06T12:17:02.034Z,6.65
2019-05-06T12:19:32.219Z,6.30
2019-05-06T12:22:00.335Z,7.00
2019-05-06T12:24:28.874Z,7.15
2019-05-06T12:26:57.318Z,7.05
2019-05-06T12:29:25.758Z,7.12
2019-05-06T12:31:58.235Z,7.15
2019-05-06T12:34:26.660Z,7.28
2019-05-06T12:36:56.735Z,7.83
2019-05-06T12:39:26.541Z,6.72
2019-05-06T12:42:05.620Z,5.92
2019-05-06T12:44:35.779Z,7.00
2019-05-06T12:47:22.129Z,6.58
2019-05-06T12:49:53.137Z,6.87
2019-05-06T12:52:23.032Z,6.65
2019-05-06T12:54:53.877Z,5.92
2019-05-06T12:57:23.871Z,6.08
2019-05-06T12:59:53.049Z,7.10
2019-05-06T13:02:23.804Z,7.15
2019-05-06T13:05:00.241Z,6.83
2019-05-06T13:07:23.661Z,7.85
2019-05-06T13:09:52.906Z,7.20
2019-05-06T13:12:23.287Z,6.72
2019-05-06T13:17:22.939Z,6.53
2019-05-06T13:19:52.331Z,7.20
2019-05-06T13:22:37.479Z,6.40
2019-05-06T13:25:06.738Z,6.22
2019-05-06T13:27:35.181Z,5.92
2019-05-06T13:30:05.485Z,6.50
2019-05-06T13:32:35.541Z,6.42
2019-05-06T13:35:04.662Z,6.45
2019-05-06T13:37:33.627Z,6.62
2019-05-06T13:40:02.589Z,6.30
2019-05-06T13:42:33.248Z,6.20
2019-05-06T13:45:02.917Z,6.25
2019-05-06T13:47:45.058Z,5.80
2019-05-06T13:50:23.002Z,6.37
2019-05-06T13:53:07.703Z,6.67
2019-05-06T13:55:22.146Z,6.28
2019-05-06T13:57:52.329Z,6.80
2019-05-06T14:00:22.487Z,7.28
2019-05-06T14:02:55.460Z,6.42
2019-05-06T14:05:24.252Z,5.83
2019-05-06T14:07:53.022Z,6.57
2019-05-06T14:10:22.300Z,6.03
2019-05-06T14:12:53.241Z,6.40
2019-05-06T14:15:23.206Z,5.95
2019-05-06T14:17:53.183Z,7.00
2019-05-06T14:20:22.090Z,6.05
2019-05-06T14:22:52.639Z,6.17
2019-05-06T14:25:23.293Z,5.83
2019-05-06T14:27:53.627Z,6.08
2019-05-06T14:30:42.970Z,6.15
2019-05-06T14:33:15.564Z,6.33
2019-05-06T14:35:43.471Z,6.80
2019-05-06T14:38:13.535Z,5.75
2019-05-06T14:41:04.359Z,6.42
2019-05-06T14:43:32.434Z,5.80
2019-05-06T14:46:01.297Z,6.33
2019-05-06T14:48:29.725Z,6.50
2019-05-06T14:50:58.177Z,5.75
2019-05-06T14:53:26.565Z,6.70
2019-05-06T14:55:56.628Z,6.47
2019-05-06T14:58:28.495Z,6.17
2019-05-06T15:01:03.270Z,6.05
2019-05-06T15:03:29.916Z,7.03
2019-05-06T15:05:58.308Z,5.97
2019-05-06T15:08:26.944Z,6.30
2019-05-06T15:10:55.378Z,6.40
2019-05-06T15:13:23.864Z,6.42
2019-05-06T15:15:52.327Z,6.28
2019-05-06T15:18:22.451Z,5.78
2019-05-06T15:20:53.930Z,6.42
2019-05-06T15:23:23.429Z,6.65
2019-05-06T15:25:52.423Z,6.00
2019-05-06T15:28:22.581Z,6.00
2019-05-06T15:30:53.014Z,5.62
2019-05-06T15:33:23.089Z,5.97
2019-05-06T15:35:58.992Z,6.08
2019-05-06T15:38:29.251Z,6.08
2019-05-06T15:40:57.888Z,6.72
2019-05-06T15:43:26.323Z,6.12
2019-05-06T15:45:54.755Z,6.30
2019-05-06T15:48:23.204Z,6.47
2019-05-06T15:50:53.315Z,5.95
2019-05-06T15:53:22.467Z,6.10
2019-05-06T15:55:53.316Z,6.33
2019-05-06T15:58:22.892Z,7.17
2019-05-06T16:00:53.110Z,7.00
2019-05-06T16:03:22.726Z,6.35
2019-05-06T16:05:52.854Z,6.70
2019-05-06T16:10:55.135Z,6.90
2019-05-06T16:13:22.289Z,7.30
2019-05-06T16:15:53.148Z,6.50
2019-05-06T16:18:23.381Z,8.18
2019-05-06T16:20:51.392Z,7.28
2019-05-06T16:23:24.374Z,7.53
2019-05-06T16:25:52.945Z,7.08
2019-05-06T16:28:22.480Z,6.75
2019-05-06T16:30:53.411Z,6.60
2019-05-06T16:33:22.107Z,7.05
2019-05-06T16:35:52.259Z,6.50
2019-05-06T16:38:22.907Z,6.87
2019-05-06T16:41:02.136Z,6.70
2019-05-06T16:46:34.161Z,6.45
2019-05-06T16:49:02.455Z,6.65
2019-05-06T16:51:32.674Z,6.30
2019-05-06T16:54:02.125Z,5.90
2019-05-06T16:56:35.333Z,5.87
2019-05-06T16:59:05.267Z,6.83
2019-05-06T17:01:35.807Z,5.97
2019-05-06T17:04:14.258Z,7.37
2019-05-06T17:06:43.802Z,6.25
2019-05-06T17:09:20.702Z,5.90
2019-05-06T17:11:42.713Z,6.10
2019-05-06T17:14:12.283Z,6.33
2019-05-06T17:16:42.422Z,6.13
2019-05-06T17:19:12.714Z,5.90
2019-05-06T17:21:42.275Z,6.20
2019-05-06T17:24:12.878Z,7.00
2019-05-06T17:26:42.655Z,7.08
2019-05-06T17:29:22.710Z,6.37
2019-05-06T17:32:08.950Z,6.87
2019-05-06T17:34:42.525Z,6.30
2019-05-06T17:37:12.657Z,6.42
2019-05-06T17:39:42.478Z,6.85
2019-05-06T17:42:10.975Z,6.35
2019-05-06T17:44:39.401Z,6.20
2019-05-06T17:47:09.472Z,9.58
2019-05-06T17:49:38.971Z,20.62
2019-05-06T17:52:09.051Z,21.90
2019-05-06T17:54:37.486Z,22.40
2019-05-06T17:57:05.917Z,7.50
2019-05-06T17:59:37.305Z,6.47
2019-05-06T18:02:22.812Z,5.55
2019-05-06T18:04:53.278Z,5.87
2019-05-06T18:07:22.379Z,5.42
2019-05-06T18:09:52.237Z,6.53
2019-05-06T18:12:22.559Z,6.12
2019-05-06T18:14:53.202Z,6.75
2019-05-06T18:17:22.021Z,6.30
2019-05-06T18:19:50.499Z,5.90
2019-05-06T18:22:18.928Z,5.50
2019-05-06T18:24:47.351Z,6.67
2019-05-06T18:27:15.946Z,6.87
2019-05-06T18:29:44.398Z,6.87
2019-05-06T18:32:12.860Z,7.10
2019-05-06T18:34:41.276Z,6.72
2019-05-06T18:37:09.698Z,5.65
2019-05-06T18:39:38.126Z,6.58
2019-05-06T18:42:16.970Z,6.30
2019-05-06T18:44:36.818Z,6.80
2019-05-06T18:47:05.422Z,5.97
2019-05-06T18:49:34.096Z,6.30
2019-05-06T18:52:02.942Z,6.40
2019-05-06T18:54:33.816Z,6.15
2019-05-06T18:57:04.349Z,6.28
2019-05-06T18:59:32.617Z,6.65
2019-05-06T19:02:02.253Z,6.22
2019-05-06T19:04:35.051Z,6.67
2019-05-06T19:07:10.534Z,6.83
2019-05-06T19:12:12.641Z,6.42
2019-05-06T19:14:43.056Z,7.25
2019-05-06T19:17:13.103Z,7.37
2019-05-06T19:19:42.673Z,5.97
2019-05-06T19:22:13.750Z,6.70
2019-05-06T19:24:42.393Z,5.97
2019-05-06T19:27:12.748Z,6.35
2019-05-06T19:29:42.846Z,6.37
2019-05-06T19:32:12.332Z,5.85
2019-05-06T19:37:11.085Z,6.30
2019-05-06T19:39:39.522Z,5.97
2019-05-06T19:42:07.958Z,6.50
2019-05-06T19:44:38.741Z,6.22
2019-05-06T19:47:07.293Z,6.17
2019-05-06T19:49:35.722Z,6.92
2019-05-06T19:52:04.317Z,6.50
2019-05-06T19:54:33.171Z,6.45
2019-05-06T19:57:02.462Z,6.87
2019-05-06T19:59:32.969Z,7.78
2019-05-06T20:02:01.175Z,6.15
2019-05-06T20:04:29.774Z,6.40
2019-05-06T20:07:02.695Z,6.78
2019-05-06T20:09:33.102Z,6.72
2019-05-06T20:14:43.189Z,6.62
2019-05-06T20:17:12.912Z,6.62
2019-05-06T20:19:42.591Z,6.25
2019-05-06T20:22:12.989Z,6.95
2019-05-06T20:24:42.531Z,6.47
2019-05-06T20:27:13.135Z,8.20
2019-05-06T20:29:42.806Z,6.65
2019-05-06T20:32:12.142Z,6.12
2019-05-06T20:34:42.793Z,6.70
2019-05-06T20:37:12.897Z,6.25
2019-05-06T20:39:43.334Z,5.90
2019-05-06T20:42:12.788Z,6.53
2019-05-06T20:44:43.340Z,6.58
2019-05-06T20:47:13.067Z,6.83
2019-05-06T20:52:12.259Z,5.83
2019-05-06T20:54:42.638Z,5.62
2019-05-06T20:57:12.314Z,6.22
2019-05-06T20:59:41.987Z,6.35
2019-05-06T21:02:12.505Z,6.47
2019-05-06T21:07:08.320Z,6.37
2019-05-06T21:09:36.758Z,6.62
2019-05-06T21:12:05.198Z,5.87
2019-05-06T21:14:33.671Z,6.42
2019-05-06T21:17:02.666Z,6.10
2019-05-06T21:19:33.150Z,6.20
2019-05-06T21:22:02.332Z,6.25
2019-05-06T21:24:32.501Z,5.77
2019-05-06T21:27:02.778Z,6.37
2019-05-06T21:29:32.450Z,5.17
2019-05-06T21:32:02.710Z,6.00
2019-05-06T21:34:32.854Z,5.15
2019-05-06T21:37:02.890Z,5.75
2019-05-06T21:42:00.943Z,5.22
2019-05-06T21:44:29.366Z,5.70
2019-05-06T21:46:57.779Z,6.95
2019-05-06T21:49:26.224Z,6.50
2019-05-06T21:51:54.701Z,6.25
2019-05-06T21:54:23.313Z,6.58
2019-05-06T21:56:53.253Z,7.05
2019-05-06T21:59:21.816Z,7.55
2019-05-06T22:01:52.028Z,6.70
2019-05-06T22:04:22.975Z,7.10
2019-05-06T22:06:52.468Z,6.90
2019-05-06T22:09:22.633Z,6.97
2019-05-06T22:11:52.916Z,6.95
2019-05-06T22:14:22.970Z,6.77
2019-05-06T22:16:51.457Z,6.92
2019-05-06T22:19:19.863Z,8.35
2019-05-06T22:21:55.402Z,7.40
2019-05-06T22:24:25.983Z,7.22
2019-05-06T22:29:24.442Z,8.55
2019-05-06T22:31:52.315Z,7.95
2019-05-06T22:34:22.135Z,7.33
2019-05-06T22:36:51.947Z,7.75
2019-05-06T22:39:22.675Z,7.28
2019-05-06T22:41:52.000Z,7.60
2019-05-06T22:44:22.627Z,7.40
2019-05-06T22:46:50.901Z,7.20
2019-05-06T22:49:19.359Z,8.05
2019-05-06T22:51:47.776Z,6.80
2019-05-06T22:54:16.197Z,7.00
2019-05-06T22:56:44.628Z,6.25
2019-05-06T22:59:13.086Z,4.28
2019-05-06T23:01:54.308Z,4.00
2019-05-06T23:04:24.081Z,5.03
2019-05-06T23:09:20.291Z,5.42
2019-05-06T23:11:48.654Z,4.95
2019-05-06T23:14:28.806Z,6.20
2019-05-06T23:16:47.230Z,6.22
2019-05-06T23:19:15.643Z,6.92
2019-05-06T23:21:44.130Z,6.80
2019-05-06T23:24:13.217Z,6.72
2019-05-06T23:26:41.930Z,6.87
2019-05-06T23:29:12.778Z,7.12
2019-05-06T23:31:42.472Z,6.67
2019-05-06T23:34:12.490Z,6.72
2019-05-06T23:36:59.074Z,7.95
2019-05-06T23:40:05.493Z,7.28
2019-05-06T23:43:10.161Z,7.22
2019-05-06T23:46:15.878Z,6.47
2019-05-06T23:49:22.267Z,7.03
2019-05-06T23:52:27.368Z,6.83
2019-05-06T23:55:32.187Z,7.53
2019-05-06T23:57:59.619Z,6.78
